Hunters Point, Arizona
Current Conditions -  °F | °C
As of 7:53 PM on Sunday 23 Nov 2014 (Local Time) from KGUP Reporting Station
Clear Clear  
Wind Chill: 25°   Ceiling: Unl
Heat Index: 25°   Visibility: 10mi
Dew Point:   Wind: 3mph
Humidity: 36%   Direction: 250°WSW
Pressure: 30.12"   Gusts: NA
Location:  35.6556°N, 109.102°W
Report Text: KGUP 240253Z AUTO 25003KT 10SM CLR M04/M17 A3012 RMK AO2 SLP229 T10391172 53016
Loading
Personal Weather Stations






























Interactive Weather Map New forecast layout! Learn more

10-Day Weather Forecast

Advertisements
Track Severe Weather on mobile